sensor_id;sensor_type;location;lat;lon;timestamp;P1;durP1;ratioP1;P2;durP2;ratioP2
61477;SDS011;47345;52.334;10.392;2024-03-22T00:00:13;8.80;;;6.50;;
61477;SDS011;47345;52.334;10.392;2024-03-22T00:02:44;11.00;;;7.00;;
61477;SDS011;47345;52.334;10.392;2024-03-22T00:05:16;10.30;;;6.60;;
61477;SDS011;47345;52.334;10.392;2024-03-22T00:07:50;11.90;;;7.40;;
61477;SDS011;47345;52.334;10.392;2024-03-22T00:10:23;9.50;;;6.70;;
61477;SDS011;47345;52.334;10.392;2024-03-22T00:12:54;12.20;;;7.70;;
61477;SDS011;47345;52.334;10.392;2024-03-22T00:15:24;10.50;;;7.20;;
61477;SDS011;47345;52.334;10.392;2024-03-22T00:17:54;10.60;;;7.50;;
61477;SDS011;47345;52.334;10.392;2024-03-22T00:20:24;11.50;;;7.00;;
61477;SDS011;47345;52.334;10.392;2024-03-22T00:22:54;12.80;;;7.80;;
61477;SDS011;47345;52.334;10.392;2024-03-22T00:25:24;10.80;;;7.50;;
61477;SDS011;47345;52.334;10.392;2024-03-22T00:27:54;18.90;;;8.30;;
61477;SDS011;47345;52.334;10.392;2024-03-22T00:30:24;14.60;;;7.10;;
61477;SDS011;47345;52.334;10.392;2024-03-22T00:32:54;10.70;;;7.80;;
61477;SDS011;47345;52.334;10.392;2024-03-22T00:35:24;12.40;;;8.10;;
61477;SDS011;47345;52.334;10.392;2024-03-22T00:37:54;14.50;;;9.00;;
61477;SDS011;47345;52.334;10.392;2024-03-22T00:40:24;14.00;;;8.60;;
61477;SDS011;47345;52.334;10.392;2024-03-22T00:42:53;11.90;;;8.50;;
61477;SDS011;47345;52.334;10.392;2024-03-22T00:45:23;13.00;;;7.90;;
61477;SDS011;47345;52.334;10.392;2024-03-22T00:47:53;11.20;;;8.50;;
61477;SDS011;47345;52.334;10.392;2024-03-22T00:50:23;13.00;;;8.10;;
61477;SDS011;47345;52.334;10.392;2024-03-22T00:52:54;15.60;;;9.60;;
61477;SDS011;47345;52.334;10.392;2024-03-22T00:55:24;16.20;;;9.10;;
61477;SDS011;47345;52.334;10.392;2024-03-22T00:57:54;15.30;;;9.50;;
61477;SDS011;47345;52.334;10.392;2024-03-22T01:00:24;15.70;;;9.50;;
61477;SDS011;47345;52.334;10.392;2024-03-22T01:02:54;15.60;;;10.00;;
61477;SDS011;47345;52.334;10.392;2024-03-22T01:05:24;18.00;;;10.10;;
61477;SDS011;47345;52.334;10.392;2024-03-22T01:07:54;18.50;;;10.30;;
61477;SDS011;47345;52.334;10.392;2024-03-22T01:10:24;16.70;;;11.20;;
61477;SDS011;47345;52.334;10.392;2024-03-22T01:12:54;14.40;;;9.80;;
61477;SDS011;47345;52.334;10.392;2024-03-22T01:15:24;15.30;;;10.40;;
61477;SDS011;47345;52.334;10.392;2024-03-22T01:17:54;17.40;;;10.70;;
61477;SDS011;47345;52.334;10.392;2024-03-22T01:20:25;17.70;;;10.90;;
61477;SDS011;47345;52.334;10.392;2024-03-22T01:23:00;23.80;;;11.40;;
61477;SDS011;47345;52.334;10.392;2024-03-22T01:25:31;20.40;;;12.00;;
61477;SDS011;47345;52.334;10.392;2024-03-22T01:28:01;17.70;;;11.50;;
61477;SDS011;47345;52.334;10.392;2024-03-22T01:30:32;17.30;;;11.80;;
61477;SDS011;47345;52.334;10.392;2024-03-22T01:33:04;23.10;;;12.70;;
61477;SDS011;47345;52.334;10.392;2024-03-22T01:35:34;19.20;;;12.30;;
61477;SDS011;47345;52.334;10.392;2024-03-22T01:38:04;22.10;;;12.80;;
61477;SDS011;47345;52.334;10.392;2024-03-22T01:40:34;21.20;;;13.20;;
61477;SDS011;47345;52.334;10.392;2024-03-22T01:43:04;23.70;;;13.40;;
61477;SDS011;47345;52.334;10.392;2024-03-22T01:45:34;24.20;;;13.20;;
61477;SDS011;47345;52.334;10.392;2024-03-22T01:48:05;24.40;;;14.40;;
61477;SDS011;47345;52.334;10.392;2024-03-22T01:50:36;26.00;;;15.70;;
61477;SDS011;47345;52.334;10.392;2024-03-22T01:53:08;24.20;;;15.50;;
61477;SDS011;47345;52.334;10.392;2024-03-22T01:55:37;29.40;;;16.40;;
61477;SDS011;47345;52.334;10.392;2024-03-22T01:58:07;28.00;;;15.80;;
61477;SDS011;47345;52.334;10.392;2024-03-22T02:00:39;25.80;;;15.60;;
61477;SDS011;47345;52.334;10.392;2024-03-22T02:03:09;29.20;;;15.20;;
61477;SDS011;47345;52.334;10.392;2024-03-22T02:05:39;27.10;;;15.30;;
61477;SDS011;47345;52.334;10.392;2024-03-22T02:08:09;25.00;;;14.90;;
61477;SDS011;47345;52.334;10.392;2024-03-22T02:10:39;27.30;;;15.20;;
61477;SDS011;47345;52.334;10.392;2024-03-22T02:13:09;26.10;;;15.10;;
61477;SDS011;47345;52.334;10.392;2024-03-22T02:15:39;26.00;;;16.40;;
61477;SDS011;47345;52.334;10.392;2024-03-22T02:18:09;29.00;;;17.00;;
61477;SDS011;47345;52.334;10.392;2024-03-22T02:20:39;26.10;;;15.90;;
61477;SDS011;47345;52.334;10.392;2024-03-22T02:23:09;28.40;;;16.30;;
61477;SDS011;47345;52.334;10.392;2024-03-22T02:25:39;28.70;;;16.70;;
61477;SDS011;47345;52.334;10.392;2024-03-22T02:28:09;29.20;;;17.00;;
61477;SDS011;47345;52.334;10.392;2024-03-22T02:30:38;32.60;;;17.60;;
61477;SDS011;47345;52.334;10.392;2024-03-22T02:33:08;30.40;;;17.40;;
61477;SDS011;47345;52.334;10.392;2024-03-22T02:35:38;25.10;;;16.20;;
61477;SDS011;47345;52.334;10.392;2024-03-22T02:38:08;29.60;;;16.80;;
61477;SDS011;47345;52.334;10.392;2024-03-22T02:40:38;28.10;;;17.20;;
61477;SDS011;47345;52.334;10.392;2024-03-22T02:43:08;31.90;;;17.70;;
61477;SDS011;47345;52.334;10.392;2024-03-22T02:45:39;33.60;;;17.20;;
61477;SDS011;47345;52.334;10.392;2024-03-22T02:48:09;27.30;;;17.50;;
61477;SDS011;47345;52.334;10.392;2024-03-22T02:50:39;29.10;;;17.70;;
61477;SDS011;47345;52.334;10.392;2024-03-22T02:53:09;28.60;;;16.80;;
61477;SDS011;47345;52.334;10.392;2024-03-22T02:55:39;31.00;;;18.40;;
61477;SDS011;47345;52.334;10.392;2024-03-22T02:58:10;29.90;;;17.60;;
61477;SDS011;47345;52.334;10.392;2024-03-22T03:00:39;26.20;;;16.90;;
61477;SDS011;47345;52.334;10.392;2024-03-22T03:03:09;27.30;;;16.10;;
61477;SDS011;47345;52.334;10.392;2024-03-22T03:05:39;27.30;;;16.80;;
61477;SDS011;47345;52.334;10.392;2024-03-22T03:08:09;28.00;;;17.00;;
61477;SDS011;47345;52.334;10.392;2024-03-22T03:10:39;29.90;;;16.30;;
61477;SDS011;47345;52.334;10.392;2024-03-22T03:16:27;28.50;;;16.50;;
61477;SDS011;47345;52.334;10.392;2024-03-22T03:18:57;27.40;;;16.90;;
61477;SDS011;47345;52.334;10.392;2024-03-22T03:21:29;31.60;;;17.30;;
61477;SDS011;47345;52.334;10.392;2024-03-22T03:23:59;27.70;;;17.00;;
61477;SDS011;47345;52.334;10.392;2024-03-22T03:26:28;27.80;;;16.60;;
61477;SDS011;47345;52.334;10.392;2024-03-22T03:28:58;29.50;;;16.30;;
61477;SDS011;47345;52.334;10.392;2024-03-22T03:31:28;27.70;;;15.60;;
61477;SDS011;47345;52.334;10.392;2024-03-22T03:33:58;28.30;;;16.40;;
61477;SDS011;47345;52.334;10.392;2024-03-22T03:36:28;25.80;;;15.30;;
61477;SDS011;47345;52.334;10.392;2024-03-22T03:38:58;26.90;;;16.30;;
61477;SDS011;47345;52.334;10.392;2024-03-22T03:41:28;27.80;;;15.40;;
61477;SDS011;47345;52.334;10.392;2024-03-22T03:43:58;26.30;;;15.50;;
61477;SDS011;47345;52.334;10.392;2024-03-22T03:46:28;27.10;;;15.40;;
61477;SDS011;47345;52.334;10.392;2024-03-22T03:48:58;21.50;;;13.70;;
61477;SDS011;47345;52.334;10.392;2024-03-22T03:51:28;25.20;;;15.80;;
61477;SDS011;47345;52.334;10.392;2024-03-22T03:53:58;26.70;;;15.00;;
61477;SDS011;47345;52.334;10.392;2024-03-22T03:56:28;26.20;;;15.40;;
61477;SDS011;47345;52.334;10.392;2024-03-22T03:58:58;26.90;;;15.30;;
61477;SDS011;47345;52.334;10.392;2024-03-22T04:01:28;22.40;;;14.20;;
61477;SDS011;47345;52.334;10.392;2024-03-22T04:03:58;27.40;;;15.60;;
61477;SDS011;47345;52.334;10.392;2024-03-22T04:06:28;24.80;;;15.30;;
61477;SDS011;47345;52.334;10.392;2024-03-22T04:08:58;24.00;;;14.80;;
61477;SDS011;47345;52.334;10.392;2024-03-22T04:11:30;22.00;;;14.40;;
61477;SDS011;47345;52.334;10.392;2024-03-22T04:14:00;27.10;;;16.10;;
61477;SDS011;47345;52.334;10.392;2024-03-22T04:16:30;22.00;;;13.90;;
61477;SDS011;47345;52.334;10.392;2024-03-22T04:19:00;24.90;;;15.70;;
61477;SDS011;47345;52.334;10.392;2024-03-22T04:21:30;27.10;;;16.40;;
61477;SDS011;47345;52.334;10.392;2024-03-22T04:24:00;32.80;;;16.20;;
61477;SDS011;47345;52.334;10.392;2024-03-22T04:26:30;28.30;;;16.30;;
61477;SDS011;47345;52.334;10.392;2024-03-22T04:29:00;29.00;;;16.00;;
61477;SDS011;47345;52.334;10.392;2024-03-22T04:31:30;25.40;;;15.30;;
61477;SDS011;47345;52.334;10.392;2024-03-22T04:34:01;29.60;;;16.80;;
61477;SDS011;47345;52.334;10.392;2024-03-22T04:36:32;27.80;;;16.10;;
61477;SDS011;47345;52.334;10.392;2024-03-22T04:39:02;26.40;;;15.40;;
61477;SDS011;47345;52.334;10.392;2024-03-22T04:41:32;26.70;;;14.90;;
61477;SDS011;47345;52.334;10.392;2024-03-22T04:44:02;30.50;;;15.40;;
61477;SDS011;47345;52.334;10.392;2024-03-22T04:46:33;27.10;;;15.80;;
61477;SDS011;47345;52.334;10.392;2024-03-22T04:49:02;29.40;;;15.40;;
61477;SDS011;47345;52.334;10.392;2024-03-22T04:51:32;27.30;;;15.90;;
61477;SDS011;47345;52.334;10.392;2024-03-22T04:54:02;24.10;;;14.00;;
61477;SDS011;47345;52.334;10.392;2024-03-22T04:56:32;25.80;;;13.70;;
61477;SDS011;47345;52.334;10.392;2024-03-22T04:59:02;27.00;;;16.10;;
61477;SDS011;47345;52.334;10.392;2024-03-22T05:01:32;29.30;;;15.10;;
61477;SDS011;47345;52.334;10.392;2024-03-22T05:04:02;23.30;;;14.10;;
61477;SDS011;47345;52.334;10.392;2024-03-22T05:06:32;25.20;;;14.50;;
61477;SDS011;47345;52.334;10.392;2024-03-22T05:09:02;24.50;;;14.40;;
61477;SDS011;47345;52.334;10.392;2024-03-22T05:11:32;26.00;;;14.90;;
61477;SDS011;47345;52.334;10.392;2024-03-22T05:14:05;26.40;;;15.00;;
61477;SDS011;47345;52.334;10.392;2024-03-22T05:16:34;26.70;;;15.00;;
61477;SDS011;47345;52.334;10.392;2024-03-22T05:19:04;23.80;;;13.60;;
61477;SDS011;47345;52.334;10.392;2024-03-22T05:21:34;23.20;;;13.90;;
61477;SDS011;47345;52.334;10.392;2024-03-22T05:24:06;26.10;;;13.50;;
61477;SDS011;47345;52.334;10.392;2024-03-22T05:26:37;26.40;;;14.40;;
61477;SDS011;47345;52.334;10.392;2024-03-22T05:29:08;22.80;;;14.00;;
61477;SDS011;47345;52.334;10.392;2024-03-22T05:31:45;26.20;;;14.00;;
61477;SDS011;47345;52.334;10.392;2024-03-22T05:34:16;22.80;;;12.70;;
61477;SDS011;47345;52.334;10.392;2024-03-22T05:36:46;27.00;;;14.10;;
61477;SDS011;47345;52.334;10.392;2024-03-22T05:39:17;28.30;;;14.40;;
61477;SDS011;47345;52.334;10.392;2024-03-22T05:41:46;24.30;;;13.30;;
61477;SDS011;47345;52.334;10.392;2024-03-22T05:44:16;22.60;;;12.70;;
61477;SDS011;47345;52.334;10.392;2024-03-22T05:46:46;23.90;;;14.10;;
61477;SDS011;47345;52.334;10.392;2024-03-22T05:49:16;23.90;;;14.00;;
61477;SDS011;47345;52.334;10.392;2024-03-22T05:51:46;28.50;;;14.50;;
61477;SDS011;47345;52.334;10.392;2024-03-22T05:54:16;24.60;;;14.40;;
61477;SDS011;47345;52.334;10.392;2024-03-22T05:56:47;29.60;;;14.30;;
61477;SDS011;47345;52.334;10.392;2024-03-22T05:59:17;22.50;;;13.60;;
61477;SDS011;47345;52.334;10.392;2024-03-22T06:01:50;27.00;;;13.90;;
61477;SDS011;47345;52.334;10.392;2024-03-22T06:04:21;25.30;;;14.50;;
61477;SDS011;47345;52.334;10.392;2024-03-22T06:06:54;23.50;;;13.30;;
61477;SDS011;47345;52.334;10.392;2024-03-22T06:09:27;26.70;;;13.70;;
61477;SDS011;47345;52.334;10.392;2024-03-22T06:12:05;22.40;;;13.40;;
61477;SDS011;47345;52.334;10.392;2024-03-22T06:14:37;33.20;;;13.80;;
61477;SDS011;47345;52.334;10.392;2024-03-22T06:17:13;25.40;;;13.20;;
61477;SDS011;47345;52.334;10.392;2024-03-22T06:19:46;20.20;;;12.80;;
61477;SDS011;47345;52.334;10.392;2024-03-22T06:22:16;25.10;;;13.90;;
61477;SDS011;47345;52.334;10.392;2024-03-22T06:24:48;27.50;;;13.90;;
61477;SDS011;47345;52.334;10.392;2024-03-22T06:27:18;23.20;;;13.50;;
61477;SDS011;47345;52.334;10.392;2024-03-22T06:29:48;24.80;;;13.40;;
61477;SDS011;47345;52.334;10.392;2024-03-22T06:32:19;24.80;;;14.10;;
61477;SDS011;47345;52.334;10.392;2024-03-22T06:34:49;26.90;;;14.10;;
61477;SDS011;47345;52.334;10.392;2024-03-22T06:37:19;26.80;;;14.00;;
61477;SDS011;47345;52.334;10.392;2024-03-22T06:39:49;26.00;;;14.50;;
61477;SDS011;47345;52.334;10.392;2024-03-22T06:42:19;25.30;;;14.00;;
61477;SDS011;47345;52.334;10.392;2024-03-22T06:44:49;22.10;;;13.30;;
61477;SDS011;47345;52.334;10.392;2024-03-22T06:47:19;28.10;;;14.70;;
61477;SDS011;47345;52.334;10.392;2024-03-22T06:49:50;27.80;;;14.80;;
61477;SDS011;47345;52.334;10.392;2024-03-22T06:52:20;24.30;;;14.90;;
61477;SDS011;47345;52.334;10.392;2024-03-22T06:54:50;27.20;;;15.60;;
61477;SDS011;47345;52.334;10.392;2024-03-22T06:57:21;27.50;;;15.10;;
61477;SDS011;47345;52.334;10.392;2024-03-22T06:59:50;25.90;;;15.10;;
61477;SDS011;47345;52.334;10.392;2024-03-22T07:02:21;30.00;;;14.80;;
61477;SDS011;47345;52.334;10.392;2024-03-22T07:04:50;24.70;;;14.80;;
61477;SDS011;47345;52.334;10.392;2024-03-22T07:07:20;27.40;;;14.60;;
61477;SDS011;47345;52.334;10.392;2024-03-22T07:09:50;24.00;;;13.20;;
61477;SDS011;47345;52.334;10.392;2024-03-22T07:12:20;26.00;;;14.30;;
61477;SDS011;47345;52.334;10.392;2024-03-22T07:14:50;25.60;;;14.90;;
61477;SDS011;47345;52.334;10.392;2024-03-22T07:17:20;28.20;;;15.40;;
61477;SDS011;47345;52.334;10.392;2024-03-22T07:19:51;29.50;;;14.90;;
61477;SDS011;47345;52.334;10.392;2024-03-22T07:22:22;25.40;;;14.90;;
61477;SDS011;47345;52.334;10.392;2024-03-22T07:24:52;25.70;;;14.50;;
61477;SDS011;47345;52.334;10.392;2024-03-22T07:27:23;25.80;;;14.00;;
61477;SDS011;47345;52.334;10.392;2024-03-22T07:29:56;26.80;;;14.20;;
61477;SDS011;47345;52.334;10.392;2024-03-22T07:32:26;26.60;;;13.70;;
61477;SDS011;47345;52.334;10.392;2024-03-22T07:34:56;25.20;;;12.70;;
61477;SDS011;47345;52.334;10.392;2024-03-22T07:37:26;27.10;;;13.90;;
61477;SDS011;47345;52.334;10.392;2024-03-22T07:39:57;22.10;;;12.20;;
61477;SDS011;47345;52.334;10.392;2024-03-22T07:42:27;25.30;;;14.10;;
61477;SDS011;47345;52.334;10.392;2024-03-22T07:44:57;22.10;;;13.60;;
61477;SDS011;47345;52.334;10.392;2024-03-22T07:47:28;23.90;;;13.40;;
61477;SDS011;47345;52.334;10.392;2024-03-22T07:49:57;24.70;;;14.10;;
61477;SDS011;47345;52.334;10.392;2024-03-22T07:52:27;23.70;;;14.00;;
61477;SDS011;47345;52.334;10.392;2024-03-22T07:54:57;21.20;;;14.00;;
61477;SDS011;47345;52.334;10.392;2024-03-22T07:57:29;25.80;;;15.20;;
61477;SDS011;47345;52.334;10.392;2024-03-22T07:59:59;25.40;;;14.30;;
61477;SDS011;47345;52.334;10.392;2024-03-22T08:02:30;24.00;;;14.30;;
61477;SDS011;47345;52.334;10.392;2024-03-22T08:05:00;21.80;;;13.30;;
61477;SDS011;47345;52.334;10.392;2024-03-22T08:07:36;26.60;;;14.00;;
61477;SDS011;47345;52.334;10.392;2024-03-22T08:10:09;23.80;;;14.10;;
61477;SDS011;47345;52.334;10.392;2024-03-22T08:12:39;27.00;;;14.00;;
61477;SDS011;47345;52.334;10.392;2024-03-22T08:15:10;24.30;;;13.00;;
61477;SDS011;47345;52.334;10.392;2024-03-22T08:17:40;21.50;;;12.80;;
61477;SDS011;47345;52.334;10.392;2024-03-22T08:20:10;22.20;;;14.00;;
61477;SDS011;47345;52.334;10.392;2024-03-22T08:22:40;22.00;;;12.80;;
61477;SDS011;47345;52.334;10.392;2024-03-22T08:25:10;22.50;;;14.40;;
61477;SDS011;47345;52.334;10.392;2024-03-22T08:27:45;23.20;;;14.10;;
61477;SDS011;47345;52.334;10.392;2024-03-22T08:30:28;27.20;;;14.30;;
61477;SDS011;47345;52.334;10.392;2024-03-22T08:32:59;24.50;;;14.10;;
61477;SDS011;47345;52.334;10.392;2024-03-22T08:35:31;19.40;;;11.50;;
61477;SDS011;47345;52.334;10.392;2024-03-22T08:38:01;24.50;;;13.40;;
61477;SDS011;47345;52.334;10.392;2024-03-22T08:40:33;24.70;;;13.80;;
61477;SDS011;47345;52.334;10.392;2024-03-22T08:43:03;25.30;;;14.90;;
61477;SDS011;47345;52.334;10.392;2024-03-22T08:45:34;22.50;;;14.70;;
61477;SDS011;47345;52.334;10.392;2024-03-22T08:48:05;21.80;;;11.30;;
61477;SDS011;47345;52.334;10.392;2024-03-22T08:50:36;29.50;;;13.90;;
61477;SDS011;47345;52.334;10.392;2024-03-22T08:53:06;23.40;;;13.40;;
61477;SDS011;47345;52.334;10.392;2024-03-22T08:55:36;26.30;;;13.90;;
61477;SDS011;47345;52.334;10.392;2024-03-22T08:58:06;21.00;;;12.60;;
61477;SDS011;47345;52.334;10.392;2024-03-22T09:00:36;23.10;;;13.50;;
61477;SDS011;47345;52.334;10.392;2024-03-22T09:03:06;23.00;;;12.70;;
61477;SDS011;47345;52.334;10.392;2024-03-22T09:05:36;26.00;;;13.90;;
61477;SDS011;47345;52.334;10.392;2024-03-22T09:08:16;18.80;;;11.70;;
61477;SDS011;47345;52.334;10.392;2024-03-22T09:10:46;21.00;;;12.30;;
61477;SDS011;47345;52.334;10.392;2024-03-22T09:13:17;23.50;;;13.70;;
61477;SDS011;47345;52.334;10.392;2024-03-22T09:15:49;23.70;;;13.40;;
61477;SDS011;47345;52.334;10.392;2024-03-22T09:18:26;22.90;;;13.10;;
61477;SDS011;47345;52.334;10.392;2024-03-22T09:20:56;19.60;;;13.00;;
61477;SDS011;47345;52.334;10.392;2024-03-22T09:23:26;22.20;;;12.70;;
61477;SDS011;47345;52.334;10.392;2024-03-22T09:25:56;20.80;;;12.70;;
61477;SDS011;47345;52.334;10.392;2024-03-22T09:28:26;23.60;;;13.00;;
61477;SDS011;47345;52.334;10.392;2024-03-22T09:30:56;23.00;;;12.30;;
61477;SDS011;47345;52.334;10.392;2024-03-22T09:33:26;23.80;;;13.50;;
61477;SDS011;47345;52.334;10.392;2024-03-22T09:35:56;22.70;;;12.60;;
61477;SDS011;47345;52.334;10.392;2024-03-22T09:38:26;21.20;;;12.00;;
61477;SDS011;47345;52.334;10.392;2024-03-22T09:40:56;24.90;;;12.80;;
61477;SDS011;47345;52.334;10.392;2024-03-22T09:43:27;22.70;;;12.60;;
61477;SDS011;47345;52.334;10.392;2024-03-22T09:45:59;21.00;;;12.70;;
61477;SDS011;47345;52.334;10.392;2024-03-22T09:48:30;21.00;;;12.80;;
61477;SDS011;47345;52.334;10.392;2024-03-22T09:51:01;19.90;;;11.70;;
61477;SDS011;47345;52.334;10.392;2024-03-22T09:53:32;18.60;;;11.30;;
61477;SDS011;47345;52.334;10.392;2024-03-22T09:56:03;23.60;;;12.80;;
61477;SDS011;47345;52.334;10.392;2024-03-22T09:58:34;21.20;;;12.10;;
61477;SDS011;47345;52.334;10.392;2024-03-22T10:01:05;24.70;;;12.80;;
61477;SDS011;47345;52.334;10.392;2024-03-22T10:03:35;20.90;;;12.10;;
61477;SDS011;47345;52.334;10.392;2024-03-22T10:06:05;17.90;;;11.60;;
61477;SDS011;47345;52.334;10.392;2024-03-22T10:08:35;21.40;;;11.70;;
61477;SDS011;47345;52.334;10.392;2024-03-22T10:11:06;23.10;;;11.80;;
61477;SDS011;47345;52.334;10.392;2024-03-22T10:13:36;18.90;;;11.60;;
61477;SDS011;47345;52.334;10.392;2024-03-22T10:16:06;22.10;;;10.80;;
61477;SDS011;47345;52.334;10.392;2024-03-22T10:18:36;23.00;;;10.90;;
61477;SDS011;47345;52.334;10.392;2024-03-22T10:21:06;19.00;;;11.10;;
61477;SDS011;47345;52.334;10.392;2024-03-22T10:23:36;18.20;;;10.40;;
61477;SDS011;47345;52.334;10.392;2024-03-22T10:26:06;19.80;;;10.60;;
61477;SDS011;47345;52.334;10.392;2024-03-22T10:28:43;17.20;;;9.90;;
61477;SDS011;47345;52.334;10.392;2024-03-22T10:31:14;19.90;;;11.70;;
61477;SDS011;47345;52.334;10.392;2024-03-22T10:33:44;16.30;;;10.00;;
61477;SDS011;47345;52.334;10.392;2024-03-22T10:36:14;18.80;;;10.40;;
61477;SDS011;47345;52.334;10.392;2024-03-22T10:38:47;16.20;;;10.20;;
61477;SDS011;47345;52.334;10.392;2024-03-22T10:41:19;17.60;;;10.00;;
61477;SDS011;47345;52.334;10.392;2024-03-22T10:43:49;19.50;;;10.00;;
61477;SDS011;47345;52.334;10.392;2024-03-22T10:46:19;17.00;;;10.10;;
61477;SDS011;47345;52.334;10.392;2024-03-22T10:48:56;14.00;;;9.50;;
61477;SDS011;47345;52.334;10.392;2024-03-22T10:51:26;16.30;;;9.70;;
61477;SDS011;47345;52.334;10.392;2024-03-22T10:53:57;14.20;;;9.10;;
61477;SDS011;47345;52.334;10.392;2024-03-22T10:56:31;15.90;;;9.50;;
61477;SDS011;47345;52.334;10.392;2024-03-22T10:59:03;15.40;;;8.70;;
61477;SDS011;47345;52.334;10.392;2024-03-22T11:01:34;15.30;;;10.00;;
61477;SDS011;47345;52.334;10.392;2024-03-22T11:04:05;12.60;;;8.50;;
61477;SDS011;47345;52.334;10.392;2024-03-22T11:06:37;17.60;;;9.50;;
61477;SDS011;47345;52.334;10.392;2024-03-22T11:09:07;17.80;;;8.80;;
61477;SDS011;47345;52.334;10.392;2024-03-22T11:11:38;16.00;;;9.00;;
61477;SDS011;47345;52.334;10.392;2024-03-22T11:14:11;13.80;;;8.50;;
61477;SDS011;47345;52.334;10.392;2024-03-22T11:16:43;15.40;;;8.90;;
61477;SDS011;47345;52.334;10.392;2024-03-22T11:19:13;15.50;;;8.50;;
61477;SDS011;47345;52.334;10.392;2024-03-22T11:21:43;14.10;;;9.40;;
61477;SDS011;47345;52.334;10.392;2024-03-22T11:24:13;18.30;;;9.30;;
61477;SDS011;47345;52.334;10.392;2024-03-22T11:26:43;15.90;;;9.10;;
61477;SDS011;47345;52.334;10.392;2024-03-22T11:29:14;14.70;;;8.90;;
61477;SDS011;47345;52.334;10.392;2024-03-22T11:31:43;10.70;;;7.80;;
61477;SDS011;47345;52.334;10.392;2024-03-22T11:34:14;14.30;;;8.10;;
61477;SDS011;47345;52.334;10.392;2024-03-22T11:36:44;13.30;;;8.20;;
61477;SDS011;47345;52.334;10.392;2024-03-22T11:39:14;13.10;;;7.70;;
61477;SDS011;47345;52.334;10.392;2024-03-22T11:41:45;12.30;;;7.10;;
61477;SDS011;47345;52.334;10.392;2024-03-22T11:44:17;15.30;;;7.90;;
61477;SDS011;47345;52.334;10.392;2024-03-22T11:46:48;11.10;;;6.80;;
61477;SDS011;47345;52.334;10.392;2024-03-22T11:49:18;12.10;;;6.90;;
61477;SDS011;47345;52.334;10.392;2024-03-22T11:51:48;11.20;;;6.30;;
61477;SDS011;47345;52.334;10.392;2024-03-22T11:54:21;13.00;;;7.80;;
61477;SDS011;47345;52.334;10.392;2024-03-22T11:56:51;14.00;;;7.60;;
61477;SDS011;47345;52.334;10.392;2024-03-22T11:59:24;13.80;;;7.50;;
61477;SDS011;47345;52.334;10.392;2024-03-22T12:01:53;11.70;;;7.00;;
61477;SDS011;47345;52.334;10.392;2024-03-22T12:04:23;13.60;;;7.50;;
61477;SDS011;47345;52.334;10.392;2024-03-22T12:06:53;14.00;;;7.60;;
61477;SDS011;47345;52.334;10.392;2024-03-22T12:09:26;12.70;;;7.70;;
61477;SDS011;47345;52.334;10.392;2024-03-22T12:11:56;13.50;;;7.90;;
61477;SDS011;47345;52.334;10.392;2024-03-22T12:14:26;12.00;;;7.90;;
61477;SDS011;47345;52.334;10.392;2024-03-22T12:16:56;16.10;;;8.10;;
61477;SDS011;47345;52.334;10.392;2024-03-22T12:19:26;13.30;;;7.70;;
61477;SDS011;47345;52.334;10.392;2024-03-22T12:21:56;16.60;;;8.30;;
61477;SDS011;47345;52.334;10.392;2024-03-22T12:24:26;13.20;;;8.00;;
61477;SDS011;47345;52.334;10.392;2024-03-22T12:26:56;15.50;;;8.80;;
61477;SDS011;47345;52.334;10.392;2024-03-22T12:29:26;13.50;;;8.50;;
61477;SDS011;47345;52.334;10.392;2024-03-22T12:31:56;12.60;;;7.80;;
61477;SDS011;47345;52.334;10.392;2024-03-22T12:34:28;16.80;;;9.30;;
61477;SDS011;47345;52.334;10.392;2024-03-22T12:36:59;12.40;;;8.20;;
61477;SDS011;47345;52.334;10.392;2024-03-22T12:39:29;14.90;;;8.60;;
61477;SDS011;47345;52.334;10.392;2024-03-22T12:42:00;14.30;;;8.40;;
61477;SDS011;47345;52.334;10.392;2024-03-22T12:44:29;14.20;;;8.80;;
61477;SDS011;47345;52.334;10.392;2024-03-22T12:46:59;12.80;;;8.80;;
61477;SDS011;47345;52.334;10.392;2024-03-22T12:49:30;16.90;;;9.50;;
61477;SDS011;47345;52.334;10.392;2024-03-22T12:52:00;15.70;;;8.90;;
61477;SDS011;47345;52.334;10.392;2024-03-22T12:54:31;16.90;;;9.00;;
61477;SDS011;47345;52.334;10.392;2024-03-22T12:57:01;13.50;;;8.50;;
61477;SDS011;47345;52.334;10.392;2024-03-22T12:59:31;14.50;;;9.60;;
61477;SDS011;47345;52.334;10.392;2024-03-22T13:02:01;11.70;;;8.30;;
61477;SDS011;47345;52.334;10.392;2024-03-22T13:04:31;12.20;;;7.80;;
61477;SDS011;47345;52.334;10.392;2024-03-22T13:07:01;13.00;;;8.70;;
61477;SDS011;47345;52.334;10.392;2024-03-22T13:09:32;13.70;;;9.00;;
61477;SDS011;47345;52.334;10.392;2024-03-22T13:12:04;14.30;;;9.00;;
61477;SDS011;47345;52.334;10.392;2024-03-22T13:14:36;14.40;;;9.10;;
61477;SDS011;47345;52.334;10.392;2024-03-22T13:17:06;14.10;;;8.80;;
61477;SDS011;47345;52.334;10.392;2024-03-22T13:19:37;13.80;;;8.60;;
61477;SDS011;47345;52.334;10.392;2024-03-22T13:22:07;16.80;;;9.40;;
61477;SDS011;47345;52.334;10.392;2024-03-22T13:24:37;15.50;;;9.10;;
61477;SDS011;47345;52.334;10.392;2024-03-22T13:27:07;13.20;;;8.60;;
61477;SDS011;47345;52.334;10.392;2024-03-22T13:29:37;15.50;;;9.90;;
61477;SDS011;47345;52.334;10.392;2024-03-22T13:32:07;16.00;;;9.50;;
61477;SDS011;47345;52.334;10.392;2024-03-22T13:34:40;15.20;;;10.20;;
61477;SDS011;47345;52.334;10.392;2024-03-22T13:37:10;14.60;;;10.30;;
61477;SDS011;47345;52.334;10.392;2024-03-22T13:39:40;16.70;;;9.80;;
61477;SDS011;47345;52.334;10.392;2024-03-22T13:42:10;16.30;;;10.20;;
61477;SDS011;47345;52.334;10.392;2024-03-22T13:44:40;16.00;;;9.20;;
61477;SDS011;47345;52.334;10.392;2024-03-22T13:47:10;18.60;;;12.30;;
61477;SDS011;47345;52.334;10.392;2024-03-22T13:49:40;15.70;;;11.00;;
61477;SDS011;47345;52.334;10.392;2024-03-22T13:52:10;17.70;;;9.70;;
61477;SDS011;47345;52.334;10.392;2024-03-22T13:54:40;19.90;;;11.50;;
61477;SDS011;47345;52.334;10.392;2024-03-22T13:57:10;18.50;;;10.80;;
61477;SDS011;47345;52.334;10.392;2024-03-22T13:59:40;15.60;;;10.40;;
61477;SDS011;47345;52.334;10.392;2024-03-22T14:02:11;13.30;;;8.30;;
61477;SDS011;47345;52.334;10.392;2024-03-22T14:04:41;17.90;;;10.50;;
61477;SDS011;47345;52.334;10.392;2024-03-22T14:07:11;16.80;;;9.70;;
61477;SDS011;47345;52.334;10.392;2024-03-22T14:09:42;20.30;;;10.70;;
61477;SDS011;47345;52.334;10.392;2024-03-22T14:12:12;15.80;;;11.00;;
61477;SDS011;47345;52.334;10.392;2024-03-22T14:14:42;13.80;;;9.50;;
61477;SDS011;47345;52.334;10.392;2024-03-22T14:17:12;17.10;;;10.30;;
61477;SDS011;47345;52.334;10.392;2024-03-22T14:19:42;11.50;;;8.00;;
61477;SDS011;47345;52.334;10.392;2024-03-22T14:22:12;15.00;;;9.80;;
61477;SDS011;47345;52.334;10.392;2024-03-22T14:24:42;12.50;;;8.50;;
61477;SDS011;47345;52.334;10.392;2024-03-22T14:27:13;15.10;;;10.10;;
61477;SDS011;47345;52.334;10.392;2024-03-22T14:29:43;17.10;;;10.00;;
61477;SDS011;47345;52.334;10.392;2024-03-22T14:32:13;15.90;;;10.00;;
61477;SDS011;47345;52.334;10.392;2024-03-22T14:34:43;16.60;;;11.30;;